Terminal Aerodrome Forecast
Issued by NWS

Home | Current Version | Previous Version | Text Only | Print | Product List | Glossary Off
Versions: 1 2 3 4 5 6 7 8 9 10 11 12 13 14 15 16 17

000
FTUS43 KFGF 261100
TAFBJI
TAF
KBJI 261120Z 2612/2712 VRB04KT P6SM SCT050
     FM261700 26012G22KT P6SM SCT250
     FM270200 28008KT P6SM BKN100
     FM271000 30010KT P6SM OVC025=

USA.gov is the U.S. government's official web portal to all federal, state and local government web resources and services.